sensor_id;sensor_type;location;lat;lon;timestamp;P1;durP1;ratioP1;P2;durP2;ratioP2
19605;SDS011;9950;50.168;8.210;2023-02-13T00:00:43;27.67;;;16.15;;
19605;SDS011;9950;50.168;8.210;2023-02-13T00:03:10;34.47;;;22.65;;
19605;SDS011;9950;50.168;8.210;2023-02-13T00:05:37;31.40;;;19.45;;
19605;SDS011;9950;50.168;8.210;2023-02-13T00:08:04;30.15;;;18.08;;
19605;SDS011;9950;50.168;8.210;2023-02-13T00:10:32;23.58;;;14.48;;
19605;SDS011;9950;50.168;8.210;2023-02-13T00:13:00;26.33;;;15.38;;
19605;SDS011;9950;50.168;8.210;2023-02-13T00:15:27;29.90;;;18.83;;
19605;SDS011;9950;50.168;8.210;2023-02-13T00:17:55;27.98;;;16.25;;
19605;SDS011;9950;50.168;8.210;2023-02-13T00:20:22;30.52;;;18.48;;
19605;SDS011;9950;50.168;8.210;2023-02-13T00:22:49;27.73;;;18.15;;
19605;SDS011;9950;50.168;8.210;2023-02-13T00:25:16;25.02;;;14.32;;
19605;SDS011;9950;50.168;8.210;2023-02-13T00:27:43;27.38;;;14.82;;
19605;SDS011;9950;50.168;8.210;2023-02-13T00:30:13;24.10;;;14.68;;
19605;SDS011;9950;50.168;8.210;2023-02-13T00:32:40;31.63;;;16.02;;
19605;SDS011;9950;50.168;8.210;2023-02-13T00:35:07;26.40;;;14.30;;
19605;SDS011;9950;50.168;8.210;2023-02-13T00:37:34;27.23;;;15.93;;
19605;SDS011;9950;50.168;8.210;2023-02-13T00:40:01;25.33;;;14.60;;
19605;SDS011;9950;50.168;8.210;2023-02-13T00:42:28;29.67;;;16.65;;
19605;SDS011;9950;50.168;8.210;2023-02-13T00:44:56;29.95;;;17.15;;
19605;SDS011;9950;50.168;8.210;2023-02-13T00:47:24;28.63;;;15.93;;
19605;SDS011;9950;50.168;8.210;2023-02-13T00:49:51;30.50;;;16.52;;
19605;SDS011;9950;50.168;8.210;2023-02-13T00:52:18;28.45;;;16.70;;
19605;SDS011;9950;50.168;8.210;2023-02-13T00:54:45;30.60;;;16.02;;
19605;SDS011;9950;50.168;8.210;2023-02-13T00:57:13;27.05;;;15.15;;
19605;SDS011;9950;50.168;8.210;2023-02-13T00:59:40;29.00;;;15.18;;
19605;SDS011;9950;50.168;8.210;2023-02-13T01:02:07;28.05;;;16.00;;
19605;SDS011;9950;50.168;8.210;2023-02-13T01:04:35;26.23;;;14.68;;
19605;SDS011;9950;50.168;8.210;2023-02-13T01:07:03;31.23;;;16.27;;
19605;SDS011;9950;50.168;8.210;2023-02-13T01:09:30;27.40;;;14.30;;
19605;SDS011;9950;50.168;8.210;2023-02-13T01:11:57;29.35;;;15.10;;
19605;SDS011;9950;50.168;8.210;2023-02-13T01:14:24;39.92;;;20.98;;
19605;SDS011;9950;50.168;8.210;2023-02-13T01:16:51;27.33;;;15.02;;
19605;SDS011;9950;50.168;8.210;2023-02-13T01:19:19;32.80;;;16.10;;
19605;SDS011;9950;50.168;8.210;2023-02-13T01:21:47;32.20;;;17.38;;
19605;SDS011;9950;50.168;8.210;2023-02-13T01:24:14;31.13;;;16.80;;
19605;SDS011;9950;50.168;8.210;2023-02-13T01:26:41;32.65;;;17.35;;
19605;SDS011;9950;50.168;8.210;2023-02-13T01:29:10;35.90;;;19.25;;
19605;SDS011;9950;50.168;8.210;2023-02-13T01:31:37;34.40;;;17.42;;
19605;SDS011;9950;50.168;8.210;2023-02-13T01:34:05;27.17;;;15.98;;
19605;SDS011;9950;50.168;8.210;2023-02-13T01:36:32;35.13;;;17.48;;
19605;SDS011;9950;50.168;8.210;2023-02-13T01:39:00;36.55;;;19.02;;
19605;SDS011;9950;50.168;8.210;2023-02-13T01:41:27;30.02;;;15.15;;
19605;SDS011;9950;50.168;8.210;2023-02-13T01:43:55;27.40;;;14.73;;
19605;SDS011;9950;50.168;8.210;2023-02-13T01:46:25;30.67;;;16.13;;
19605;SDS011;9950;50.168;8.210;2023-02-13T01:48:53;31.10;;;15.80;;
19605;SDS011;9950;50.168;8.210;2023-02-13T01:51:23;31.55;;;17.13;;
19605;SDS011;9950;50.168;8.210;2023-02-13T01:53:51;31.88;;;15.90;;
19605;SDS011;9950;50.168;8.210;2023-02-13T01:56:21;28.73;;;14.63;;
19605;SDS011;9950;50.168;8.210;2023-02-13T01:58:51;28.75;;;14.52;;
19605;SDS011;9950;50.168;8.210;2023-02-13T02:01:19;34.30;;;15.82;;
19605;SDS011;9950;50.168;8.210;2023-02-13T02:03:47;31.02;;;15.02;;
19605;SDS011;9950;50.168;8.210;2023-02-13T02:06:17;25.70;;;13.13;;
19605;SDS011;9950;50.168;8.210;2023-02-13T02:08:45;23.27;;;12.52;;
19605;SDS011;9950;50.168;8.210;2023-02-13T02:11:16;22.23;;;12.32;;
19605;SDS011;9950;50.168;8.210;2023-02-13T02:13:48;25.42;;;12.45;;
19605;SDS011;9950;50.168;8.210;2023-02-13T02:16:15;26.45;;;13.57;;
19605;SDS011;9950;50.168;8.210;2023-02-13T02:18:42;24.98;;;12.48;;
19605;SDS011;9950;50.168;8.210;2023-02-13T02:26:54;25.65;;;13.15;;
19605;SDS011;9950;50.168;8.210;2023-02-13T02:29:53;24.23;;;12.15;;
19605;SDS011;9950;50.168;8.210;2023-02-13T02:32:30;22.13;;;12.07;;
19605;SDS011;9950;50.168;8.210;2023-02-13T02:35:05;27.33;;;13.27;;
19605;SDS011;9950;50.168;8.210;2023-02-13T02:37:38;29.73;;;13.43;;
19605;SDS011;9950;50.168;8.210;2023-02-13T02:40:10;26.85;;;12.85;;
19605;SDS011;9950;50.168;8.210;2023-02-13T02:42:41;24.63;;;12.50;;
19605;SDS011;9950;50.168;8.210;2023-02-13T02:45:11;27.92;;;13.60;;
19605;SDS011;9950;50.168;8.210;2023-02-13T02:47:47;22.40;;;11.55;;
19605;SDS011;9950;50.168;8.210;2023-02-13T02:50:36;27.45;;;13.65;;
19605;SDS011;9950;50.168;8.210;2023-02-13T02:53:09;26.50;;;13.90;;
19605;SDS011;9950;50.168;8.210;2023-02-13T02:55:37;26.75;;;13.75;;
19605;SDS011;9950;50.168;8.210;2023-02-13T02:58:08;28.27;;;13.63;;
19605;SDS011;9950;50.168;8.210;2023-02-13T03:00:54;33.63;;;15.20;;
19605;SDS011;9950;50.168;8.210;2023-02-13T03:03:42;26.42;;;12.90;;
19605;SDS011;9950;50.168;8.210;2023-02-13T03:06:29;27.98;;;13.32;;
19605;SDS011;9950;50.168;8.210;2023-02-13T03:08:59;31.15;;;14.02;;
19605;SDS011;9950;50.168;8.210;2023-02-13T03:11:47;26.95;;;13.30;;
19605;SDS011;9950;50.168;8.210;2023-02-13T03:14:33;31.67;;;14.00;;
19605;SDS011;9950;50.168;8.210;2023-02-13T03:17:00;30.15;;;14.25;;
19605;SDS011;9950;50.168;8.210;2023-02-13T03:19:54;30.15;;;13.90;;
19605;SDS011;9950;50.168;8.210;2023-02-13T03:22:57;29.52;;;12.63;;
19605;SDS011;9950;50.168;8.210;2023-02-13T03:25:27;32.47;;;14.75;;
19605;SDS011;9950;50.168;8.210;2023-02-13T03:28:00;30.55;;;14.38;;
19605;SDS011;9950;50.168;8.210;2023-02-13T03:30:50;33.38;;;15.20;;
19605;SDS011;9950;50.168;8.210;2023-02-13T03:33:25;35.83;;;15.23;;
19605;SDS011;9950;50.168;8.210;2023-02-13T03:35:59;30.95;;;14.85;;
19605;SDS011;9950;50.168;8.210;2023-02-13T03:38:47;30.85;;;14.20;;
19605;SDS011;9950;50.168;8.210;2023-02-13T03:41:17;34.00;;;15.43;;
19605;SDS011;9950;50.168;8.210;2023-02-13T03:43:49;31.85;;;14.13;;
19605;SDS011;9950;50.168;8.210;2023-02-13T03:46:18;33.72;;;14.73;;
19605;SDS011;9950;50.168;8.210;2023-02-13T03:48:45;33.33;;;15.20;;
19605;SDS011;9950;50.168;8.210;2023-02-13T03:51:32;35.72;;;15.35;;
19605;SDS011;9950;50.168;8.210;2023-02-13T03:54:03;36.22;;;15.13;;
19605;SDS011;9950;50.168;8.210;2023-02-13T03:56:32;32.53;;;14.38;;
19605;SDS011;9950;50.168;8.210;2023-02-13T03:59:19;30.48;;;13.25;;
19605;SDS011;9950;50.168;8.210;2023-02-13T04:01:50;31.92;;;14.27;;
19605;SDS011;9950;50.168;8.210;2023-02-13T04:04:20;32.30;;;14.52;;
19605;SDS011;9950;50.168;8.210;2023-02-13T04:06:51;31.48;;;14.48;;
19605;SDS011;9950;50.168;8.210;2023-02-13T04:09:20;39.03;;;15.88;;
19605;SDS011;9950;50.168;8.210;2023-02-13T04:11:48;33.45;;;16.42;;
19605;SDS011;9950;50.168;8.210;2023-02-13T04:14:19;32.55;;;15.55;;
19605;SDS011;9950;50.168;8.210;2023-02-13T04:16:48;33.67;;;15.02;;
19605;SDS011;9950;50.168;8.210;2023-02-13T04:19:16;34.08;;;15.60;;
19605;SDS011;9950;50.168;8.210;2023-02-13T04:21:43;39.63;;;15.63;;
19605;SDS011;9950;50.168;8.210;2023-02-13T04:24:16;37.50;;;16.08;;
19605;SDS011;9950;50.168;8.210;2023-02-13T04:26:43;34.38;;;15.85;;
19605;SDS011;9950;50.168;8.210;2023-02-13T04:29:11;34.55;;;15.05;;
19605;SDS011;9950;50.168;8.210;2023-02-13T04:31:38;33.80;;;15.20;;
19605;SDS011;9950;50.168;8.210;2023-02-13T04:34:05;36.25;;;15.07;;
19605;SDS011;9950;50.168;8.210;2023-02-13T04:36:33;34.95;;;15.13;;
19605;SDS011;9950;50.168;8.210;2023-02-13T04:39:00;31.85;;;14.45;;
19605;SDS011;9950;50.168;8.210;2023-02-13T04:41:28;34.10;;;14.52;;
19605;SDS011;9950;50.168;8.210;2023-02-13T04:43:56;33.33;;;14.05;;
19605;SDS011;9950;50.168;8.210;2023-02-13T04:46:23;36.17;;;15.10;;
19605;SDS011;9950;50.168;8.210;2023-02-13T04:48:50;33.97;;;15.20;;
19605;SDS011;9950;50.168;8.210;2023-02-13T04:51:17;38.70;;;16.23;;
19605;SDS011;9950;50.168;8.210;2023-02-13T04:53:44;36.53;;;17.02;;
19605;SDS011;9950;50.168;8.210;2023-02-13T04:56:12;33.28;;;15.70;;
19605;SDS011;9950;50.168;8.210;2023-02-13T04:58:40;38.72;;;16.58;;
19605;SDS011;9950;50.168;8.210;2023-02-13T05:01:11;39.55;;;17.50;;
19605;SDS011;9950;50.168;8.210;2023-02-13T05:03:38;38.33;;;16.55;;
19605;SDS011;9950;50.168;8.210;2023-02-13T05:06:05;31.52;;;14.43;;
19605;SDS011;9950;50.168;8.210;2023-02-13T05:08:32;28.63;;;13.48;;
19605;SDS011;9950;50.168;8.210;2023-02-13T05:11:00;32.78;;;14.10;;
19605;SDS011;9950;50.168;8.210;2023-02-13T05:13:27;34.13;;;14.40;;
19605;SDS011;9950;50.168;8.210;2023-02-13T05:15:55;34.28;;;13.43;;
19605;SDS011;9950;50.168;8.210;2023-02-13T05:18:23;37.17;;;13.68;;
19605;SDS011;9950;50.168;8.210;2023-02-13T05:20:50;34.53;;;14.23;;
19605;SDS011;9950;50.168;8.210;2023-02-13T05:23:31;35.20;;;13.40;;
19605;SDS011;9950;50.168;8.210;2023-02-13T05:25:58;31.15;;;13.23;;
19605;SDS011;9950;50.168;8.210;2023-02-13T05:28:25;33.40;;;13.45;;
19605;SDS011;9950;50.168;8.210;2023-02-13T05:31:11;33.90;;;14.65;;
19605;SDS011;9950;50.168;8.210;2023-02-13T05:33:39;30.63;;;13.13;;
19605;SDS011;9950;50.168;8.210;2023-02-13T05:36:06;30.63;;;13.32;;
19605;SDS011;9950;50.168;8.210;2023-02-13T05:38:33;26.85;;;12.00;;
19605;SDS011;9950;50.168;8.210;2023-02-13T05:41:01;30.77;;;13.60;;
19605;SDS011;9950;50.168;8.210;2023-02-13T05:43:28;27.10;;;11.85;;
19605;SDS011;9950;50.168;8.210;2023-02-13T05:46:03;31.92;;;12.45;;
19605;SDS011;9950;50.168;8.210;2023-02-13T05:48:31;30.73;;;12.88;;
19605;SDS011;9950;50.168;8.210;2023-02-13T05:50:58;29.67;;;12.07;;
19605;SDS011;9950;50.168;8.210;2023-02-13T05:53:26;31.92;;;12.13;;
19605;SDS011;9950;50.168;8.210;2023-02-13T05:55:54;28.95;;;11.45;;
19605;SDS011;9950;50.168;8.210;2023-02-13T05:58:21;27.27;;;11.63;;
19605;SDS011;9950;50.168;8.210;2023-02-13T06:00:48;27.77;;;11.25;;
19605;SDS011;9950;50.168;8.210;2023-02-13T06:03:16;25.13;;;11.10;;
19605;SDS011;9950;50.168;8.210;2023-02-13T06:05:44;25.92;;;12.15;;
19605;SDS011;9950;50.168;8.210;2023-02-13T06:08:11;28.25;;;12.15;;
19605;SDS011;9950;50.168;8.210;2023-02-13T06:10:39;28.08;;;11.70;;
19605;SDS011;9950;50.168;8.210;2023-02-13T06:13:06;28.42;;;12.40;;
19605;SDS011;9950;50.168;8.210;2023-02-13T06:15:33;25.48;;;11.90;;
19605;SDS011;9950;50.168;8.210;2023-02-13T06:18:00;26.85;;;11.98;;
19605;SDS011;9950;50.168;8.210;2023-02-13T06:20:27;28.80;;;12.55;;
19605;SDS011;9950;50.168;8.210;2023-02-13T06:22:56;24.05;;;11.88;;
19605;SDS011;9950;50.168;8.210;2023-02-13T06:25:23;26.33;;;11.73;;
19605;SDS011;9950;50.168;8.210;2023-02-13T06:27:51;28.52;;;12.02;;
19605;SDS011;9950;50.168;8.210;2023-02-13T06:30:18;31.55;;;13.15;;
19605;SDS011;9950;50.168;8.210;2023-02-13T06:32:45;29.30;;;12.73;;
19605;SDS011;9950;50.168;8.210;2023-02-13T06:35:13;30.33;;;12.77;;
19605;SDS011;9950;50.168;8.210;2023-02-13T06:37:40;32.83;;;12.63;;
19605;SDS011;9950;50.168;8.210;2023-02-13T06:40:10;28.75;;;11.75;;
19605;SDS011;9950;50.168;8.210;2023-02-13T06:42:38;29.52;;;12.95;;
19605;SDS011;9950;50.168;8.210;2023-02-13T06:45:06;34.85;;;13.98;;
19605;SDS011;9950;50.168;8.210;2023-02-13T06:47:33;27.75;;;12.50;;
19605;SDS011;9950;50.168;8.210;2023-02-13T06:50:00;25.95;;;11.65;;
19605;SDS011;9950;50.168;8.210;2023-02-13T06:52:28;24.58;;;11.43;;
19605;SDS011;9950;50.168;8.210;2023-02-13T06:54:55;26.20;;;11.65;;
19605;SDS011;9950;50.168;8.210;2023-02-13T06:57:24;29.60;;;12.32;;
19605;SDS011;9950;50.168;8.210;2023-02-13T06:59:51;26.75;;;11.95;;
19605;SDS011;9950;50.168;8.210;2023-02-13T07:02:18;30.58;;;12.73;;
19605;SDS011;9950;50.168;8.210;2023-02-13T07:04:45;32.28;;;13.38;;
19605;SDS011;9950;50.168;8.210;2023-02-13T07:07:12;29.75;;;12.77;;
19605;SDS011;9950;50.168;8.210;2023-02-13T07:09:40;31.73;;;13.50;;
19605;SDS011;9950;50.168;8.210;2023-02-13T07:12:07;31.42;;;12.63;;
19605;SDS011;9950;50.168;8.210;2023-02-13T07:14:35;34.47;;;13.93;;
19605;SDS011;9950;50.168;8.210;2023-02-13T07:17:03;33.67;;;14.60;;
19605;SDS011;9950;50.168;8.210;2023-02-13T07:19:30;33.28;;;14.18;;
19605;SDS011;9950;50.168;8.210;2023-02-13T07:22:00;27.70;;;13.50;;
19605;SDS011;9950;50.168;8.210;2023-02-13T07:24:27;32.17;;;14.15;;
19605;SDS011;9950;50.168;8.210;2023-02-13T07:26:55;31.08;;;13.60;;
19605;SDS011;9950;50.168;8.210;2023-02-13T07:29:22;36.05;;;14.82;;
19605;SDS011;9950;50.168;8.210;2023-02-13T07:31:50;36.03;;;15.40;;
19605;SDS011;9950;50.168;8.210;2023-02-13T07:34:17;30.00;;;14.73;;
19605;SDS011;9950;50.168;8.210;2023-02-13T07:36:45;39.88;;;15.65;;
19605;SDS011;9950;50.168;8.210;2023-02-13T07:39:12;36.70;;;16.20;;
19605;SDS011;9950;50.168;8.210;2023-02-13T07:41:39;36.92;;;14.20;;
19605;SDS011;9950;50.168;8.210;2023-02-13T07:44:06;36.95;;;15.73;;
19605;SDS011;9950;50.168;8.210;2023-02-13T07:46:33;41.45;;;18.63;;
19605;SDS011;9950;50.168;8.210;2023-02-13T07:49:02;39.00;;;16.63;;
19605;SDS011;9950;50.168;8.210;2023-02-13T07:51:29;39.75;;;17.33;;
19605;SDS011;9950;50.168;8.210;2023-02-13T07:53:56;40.05;;;18.15;;
19605;SDS011;9950;50.168;8.210;2023-02-13T07:56:23;38.65;;;17.67;;
19605;SDS011;9950;50.168;8.210;2023-02-13T07:58:51;36.42;;;18.00;;
19605;SDS011;9950;50.168;8.210;2023-02-13T08:01:18;44.75;;;20.33;;
19605;SDS011;9950;50.168;8.210;2023-02-13T08:03:46;44.72;;;22.42;;
19605;SDS011;9950;50.168;8.210;2023-02-13T08:06:17;42.75;;;19.75;;
19605;SDS011;9950;50.168;8.210;2023-02-13T08:08:44;41.40;;;18.83;;
19605;SDS011;9950;50.168;8.210;2023-02-13T08:11:17;41.40;;;20.67;;
19605;SDS011;9950;50.168;8.210;2023-02-13T08:14:05;44.67;;;21.77;;
19605;SDS011;9950;50.168;8.210;2023-02-13T08:16:33;48.83;;;22.23;;
19605;SDS011;9950;50.168;8.210;2023-02-13T08:19:00;44.25;;;21.38;;
19605;SDS011;9950;50.168;8.210;2023-02-13T08:21:28;45.65;;;20.08;;
19605;SDS011;9950;50.168;8.210;2023-02-13T08:24:00;42.28;;;20.75;;
19605;SDS011;9950;50.168;8.210;2023-02-13T08:26:29;47.05;;;23.20;;
19605;SDS011;9950;50.168;8.210;2023-02-13T08:28:56;43.38;;;20.98;;
19605;SDS011;9950;50.168;8.210;2023-02-13T08:31:24;43.35;;;21.30;;
19605;SDS011;9950;50.168;8.210;2023-02-13T08:33:51;41.28;;;21.02;;
19605;SDS011;9950;50.168;8.210;2023-02-13T08:36:18;34.53;;;18.08;;
19605;SDS011;9950;50.168;8.210;2023-02-13T08:38:47;33.50;;;17.40;;
19605;SDS011;9950;50.168;8.210;2023-02-13T08:41:14;32.58;;;16.58;;
19605;SDS011;9950;50.168;8.210;2023-02-13T08:43:43;28.02;;;14.70;;
19605;SDS011;9950;50.168;8.210;2023-02-13T08:46:10;28.50;;;14.05;;
19605;SDS011;9950;50.168;8.210;2023-02-13T08:48:37;25.15;;;12.35;;
19605;SDS011;9950;50.168;8.210;2023-02-13T08:51:04;25.00;;;12.60;;
19605;SDS011;9950;50.168;8.210;2023-02-13T08:53:33;23.63;;;13.23;;
19605;SDS011;9950;50.168;8.210;2023-02-13T08:56:01;25.40;;;12.52;;
19605;SDS011;9950;50.168;8.210;2023-02-13T08:58:29;24.23;;;12.55;;
19605;SDS011;9950;50.168;8.210;2023-02-13T09:00:56;17.98;;;10.25;;
19605;SDS011;9950;50.168;8.210;2023-02-13T09:03:23;19.27;;;11.05;;
19605;SDS011;9950;50.168;8.210;2023-02-13T09:05:50;15.85;;;9.70;;
19605;SDS011;9950;50.168;8.210;2023-02-13T09:08:18;17.38;;;8.73;;
19605;SDS011;9950;50.168;8.210;2023-02-13T09:10:45;15.77;;;8.75;;
19605;SDS011;9950;50.168;8.210;2023-02-13T09:13:13;13.77;;;8.00;;
19605;SDS011;9950;50.168;8.210;2023-02-13T09:15:41;14.75;;;8.30;;
19605;SDS011;9950;50.168;8.210;2023-02-13T09:18:08;15.15;;;8.95;;
19605;SDS011;9950;50.168;8.210;2023-02-13T09:20:35;18.08;;;9.18;;
19605;SDS011;9950;50.168;8.210;2023-02-13T09:23:02;15.15;;;8.70;;
19605;SDS011;9950;50.168;8.210;2023-02-13T09:25:29;13.68;;;8.10;;
19605;SDS011;9950;50.168;8.210;2023-02-13T09:27:58;13.35;;;8.32;;
19605;SDS011;9950;50.168;8.210;2023-02-13T09:30:26;14.00;;;8.43;;
19605;SDS011;9950;50.168;8.210;2023-02-13T09:32:54;13.48;;;7.80;;
19605;SDS011;9950;50.168;8.210;2023-02-13T09:35:21;13.43;;;8.35;;
19605;SDS011;9950;50.168;8.210;2023-02-13T09:37:48;12.93;;;7.90;;
19605;SDS011;9950;50.168;8.210;2023-02-13T09:40:17;12.80;;;8.13;;
19605;SDS011;9950;50.168;8.210;2023-02-13T09:42:46;16.15;;;8.02;;
19605;SDS011;9950;50.168;8.210;2023-02-13T09:45:13;13.68;;;8.00;;
19605;SDS011;9950;50.168;8.210;2023-02-13T09:47:43;16.02;;;8.95;;
19605;SDS011;9950;50.168;8.210;2023-02-13T09:50:11;13.23;;;8.48;;
19605;SDS011;9950;50.168;8.210;2023-02-13T09:52:41;14.80;;;7.80;;
19605;SDS011;9950;50.168;8.210;2023-02-13T09:55:13;17.27;;;8.65;;
19605;SDS011;9950;50.168;8.210;2023-02-13T09:57:41;11.82;;;8.05;;
19605;SDS011;9950;50.168;8.210;2023-02-13T10:00:10;11.65;;;7.28;;
19605;SDS011;9950;50.168;8.210;2023-02-13T10:02:56;14.07;;;7.85;;
19605;SDS011;9950;50.168;8.210;2023-02-13T10:05:41;12.15;;;7.28;;
19605;SDS011;9950;50.168;8.210;2023-02-13T10:08:12;17.35;;;9.73;;
19605;SDS011;9950;50.168;8.210;2023-02-13T10:10:49;11.85;;;7.45;;
19605;SDS011;9950;50.168;8.210;2023-02-13T10:13:21;12.13;;;6.93;;
19605;SDS011;9950;50.168;8.210;2023-02-13T10:15:52;10.40;;;6.75;;
19605;SDS011;9950;50.168;8.210;2023-02-13T10:18:23;10.57;;;6.15;;
19605;SDS011;9950;50.168;8.210;2023-02-13T10:20:56;10.77;;;6.60;;
19605;SDS011;9950;50.168;8.210;2023-02-13T10:23:27;9.55;;;6.10;;
19605;SDS011;9950;50.168;8.210;2023-02-13T10:25:56;9.32;;;5.88;;
19605;SDS011;9950;50.168;8.210;2023-02-13T10:28:32;10.85;;;6.00;;
19605;SDS011;9950;50.168;8.210;2023-02-13T10:31:02;8.40;;;5.20;;
19605;SDS011;9950;50.168;8.210;2023-02-13T10:33:33;9.23;;;5.38;;
19605;SDS011;9950;50.168;8.210;2023-02-13T10:36:01;10.68;;;5.65;;
19605;SDS011;9950;50.168;8.210;2023-02-13T10:38:30;8.85;;;5.43;;
19605;SDS011;9950;50.168;8.210;2023-02-13T10:41:05;8.02;;;5.13;;
19605;SDS011;9950;50.168;8.210;2023-02-13T10:43:39;8.60;;;5.30;;
19605;SDS011;9950;50.168;8.210;2023-02-13T10:46:13;8.25;;;4.90;;
19605;SDS011;9950;50.168;8.210;2023-02-13T10:51:34;8.18;;;5.30;;
19605;SDS011;9950;50.168;8.210;2023-02-13T10:54:18;9.85;;;5.88;;
19605;SDS011;9950;50.168;8.210;2023-02-13T10:56:49;6.75;;;4.68;;
19605;SDS011;9950;50.168;8.210;2023-02-13T10:59:27;9.68;;;4.90;;
19605;SDS011;9950;50.168;8.210;2023-02-13T11:01:56;6.85;;;4.55;;
19605;SDS011;9950;50.168;8.210;2023-02-13T11:04:24;11.07;;;5.00;;
19605;SDS011;9950;50.168;8.210;2023-02-13T11:06:54;8.82;;;4.85;;
19605;SDS011;9950;50.168;8.210;2023-02-13T11:09:21;6.65;;;4.68;;
19605;SDS011;9950;50.168;8.210;2023-02-13T11:11:49;8.40;;;4.95;;
19605;SDS011;9950;50.168;8.210;2023-02-13T11:14:17;7.60;;;4.72;;
19605;SDS011;9950;50.168;8.210;2023-02-13T11:16:53;8.48;;;4.40;;
19605;SDS011;9950;50.168;8.210;2023-02-13T11:19:22;5.72;;;3.97;;
19605;SDS011;9950;50.168;8.210;2023-02-13T11:21:54;8.45;;;4.38;;
19605;SDS011;9950;50.168;8.210;2023-02-13T11:24:22;7.13;;;4.28;;
19605;SDS011;9950;50.168;8.210;2023-02-13T11:26:50;5.50;;;3.90;;
19605;SDS011;9950;50.168;8.210;2023-02-13T11:29:20;6.32;;;4.25;;
19605;SDS011;9950;50.168;8.210;2023-02-13T11:31:48;6.40;;;3.90;;
19605;SDS011;9950;50.168;8.210;2023-02-13T11:34:28;5.22;;;3.47;;
19605;SDS011;9950;50.168;8.210;2023-02-13T11:37:13;5.07;;;3.63;;
19605;SDS011;9950;50.168;8.210;2023-02-13T11:39:41;5.90;;;3.58;;
19605;SDS011;9950;50.168;8.210;2023-02-13T11:42:11;5.30;;;3.67;;
19605;SDS011;9950;50.168;8.210;2023-02-13T11:44:39;5.45;;;3.28;;
19605;SDS011;9950;50.168;8.210;2023-02-13T11:47:07;4.72;;;2.70;;
19605;SDS011;9950;50.168;8.210;2023-02-13T11:49:35;5.28;;;3.45;;
19605;SDS011;9950;50.168;8.210;2023-02-13T11:52:03;5.90;;;3.65;;
19605;SDS011;9950;50.168;8.210;2023-02-13T11:54:32;6.30;;;4.05;;
19605;SDS011;9950;50.168;8.210;2023-02-13T11:57:01;5.90;;;3.65;;
19605;SDS011;9950;50.168;8.210;2023-02-13T11:59:29;6.13;;;3.50;;
19605;SDS011;9950;50.168;8.210;2023-02-13T12:02:00;6.25;;;3.63;;
19605;SDS011;9950;50.168;8.210;2023-02-13T12:04:28;5.60;;;3.50;;
19605;SDS011;9950;50.168;8.210;2023-02-13T12:06:59;5.25;;;2.90;;
19605;SDS011;9950;50.168;8.210;2023-02-13T12:09:27;4.60;;;2.92;;
19605;SDS011;9950;50.168;8.210;2023-02-13T12:11:57;7.03;;;3.85;;
19605;SDS011;9950;50.168;8.210;2023-02-13T12:14:27;6.15;;;3.22;;
19605;SDS011;9950;50.168;8.210;2023-02-13T12:16:57;4.05;;;2.65;;
19605;SDS011;9950;50.168;8.210;2023-02-13T12:19:27;5.35;;;3.30;;
19605;SDS011;9950;50.168;8.210;2023-02-13T12:21:59;4.72;;;3.08;;
19605;SDS011;9950;50.168;8.210;2023-02-13T12:27:16;4.22;;;3.00;;
19605;SDS011;9950;50.168;8.210;2023-02-13T12:29:52;4.75;;;2.97;;
19605;SDS011;9950;50.168;8.210;2023-02-13T12:32:25;4.75;;;3.40;;
19605;SDS011;9950;50.168;8.210;2023-02-13T12:34:58;5.05;;;3.10;;
19605;SDS011;9950;50.168;8.210;2023-02-13T12:37:31;8.25;;;3.13;;
19605;SDS011;9950;50.168;8.210;2023-02-13T12:40:06;4.50;;;3.28;;
19605;SDS011;9950;50.168;8.210;2023-02-13T12:42:45;4.55;;;3.38;;
19605;SDS011;9950;50.168;8.210;2023-02-13T12:45:20;6.35;;;3.20;;
19605;SDS011;9950;50.168;8.210;2023-02-13T12:48:02;4.28;;;3.10;;
19605;SDS011;9950;50.168;8.210;2023-02-13T12:50:35;2.90;;;2.33;;
19605;SDS011;9950;50.168;8.210;2023-02-13T12:53:10;4.15;;;2.63;;
19605;SDS011;9950;50.168;8.210;2023-02-13T12:55:43;6.88;;;2.70;;
19605;SDS011;9950;50.168;8.210;2023-02-13T12:58:29;4.85;;;2.88;;
19605;SDS011;9950;50.168;8.210;2023-02-13T13:01:05;4.53;;;2.60;;
19605;SDS011;9950;50.168;8.210;2023-02-13T13:03:41;4.68;;;3.10;;
19605;SDS011;9950;50.168;8.210;2023-02-13T13:06:20;5.22;;;3.90;;
19605;SDS011;9950;50.168;8.210;2023-02-13T13:08:53;4.30;;;3.25;;
19605;SDS011;9950;50.168;8.210;2023-02-13T13:11:29;6.20;;;3.53;;
19605;SDS011;9950;50.168;8.210;2023-02-13T13:14:03;4.97;;;3.08;;
19605;SDS011;9950;50.168;8.210;2023-02-13T13:16:34;4.30;;;3.00;;
19605;SDS011;9950;50.168;8.210;2023-02-13T13:19:07;5.68;;;3.60;;
19605;SDS011;9950;50.168;8.210;2023-02-13T13:21:39;3.15;;;2.35;;
19605;SDS011;9950;50.168;8.210;2023-02-13T13:24:10;4.50;;;2.95;;
19605;SDS011;9950;50.168;8.210;2023-02-13T13:26:40;4.40;;;2.85;;
19605;SDS011;9950;50.168;8.210;2023-02-13T13:29:11;3.20;;;2.50;;
19605;SDS011;9950;50.168;8.210;2023-02-13T13:31:41;3.40;;;2.97;;
19605;SDS011;9950;50.168;8.210;2023-02-13T13:34:13;3.25;;;2.35;;
19605;SDS011;9950;50.168;8.210;2023-02-13T13:36:44;3.50;;;2.80;;
19605;SDS011;9950;50.168;8.210;2023-02-13T13:39:19;4.25;;;2.83;;
19605;SDS011;9950;50.168;8.210;2023-02-13T13:41:51;5.07;;;3.40;;
19605;SDS011;9950;50.168;8.210;2023-02-13T13:44:25;4.75;;;3.40;;
19605;SDS011;9950;50.168;8.210;2023-02-13T13:47:00;3.38;;;2.80;;
19605;SDS011;9950;50.168;8.210;2023-02-13T13:49:34;4.30;;;3.08;;
19605;SDS011;9950;50.168;8.210;2023-02-13T13:54:45;4.53;;;3.80;;
19605;SDS011;9950;50.168;8.210;2023-02-13T13:57:15;5.10;;;3.50;;
19605;SDS011;9950;50.168;8.210;2023-02-13T13:59:57;4.03;;;3.30;;
19605;SDS011;9950;50.168;8.210;2023-02-13T14:02:26;4.05;;;2.92;;
19605;SDS011;9950;50.168;8.210;2023-02-13T14:05:00;5.00;;;3.35;;
19605;SDS011;9950;50.168;8.210;2023-02-13T14:07:32;3.47;;;2.83;;
19605;SDS011;9950;50.168;8.210;2023-02-13T14:10:00;4.25;;;3.10;;
19605;SDS011;9950;50.168;8.210;2023-02-13T14:12:36;6.50;;;3.15;;
19605;SDS011;9950;50.168;8.210;2023-02-13T14:15:47;5.15;;;3.55;;
19605;SDS011;9950;50.168;8.210;2023-02-13T14:17:54;5.43;;;3.50;;
19605;SDS011;9950;50.168;8.210;2023-02-13T14:20:25;5.15;;;3.50;;
19605;SDS011;9950;50.168;8.210;2023-02-13T14:22:54;5.90;;;4.07;;
19605;SDS011;9950;50.168;8.210;2023-02-13T14:25:22;5.38;;;3.20;;
19605;SDS011;9950;50.168;8.210;2023-02-13T14:27:59;3.78;;;3.13;;
19605;SDS011;9950;50.168;8.210;2023-02-13T14:30:29;5.35;;;3.50;;
19605;SDS011;9950;50.168;8.210;2023-02-13T14:32:58;4.28;;;3.17;;
19605;SDS011;9950;50.168;8.210;2023-02-13T14:35:27;4.05;;;3.30;;
19605;SDS011;9950;50.168;8.210;2023-02-13T14:37:54;4.50;;;3.15;;
19605;SDS011;9950;50.168;8.210;2023-02-13T14:45:50;3.35;;;2.70;;
19605;SDS011;9950;50.168;8.210;2023-02-13T14:48:18;5.00;;;3.10;;
19605;SDS011;9950;50.168;8.210;2023-02-13T14:50:47;5.07;;;3.13;;
19605;SDS011;9950;50.168;8.210;2023-02-13T14:53:17;5.57;;;3.15;;
19605;SDS011;9950;50.168;8.210;2023-02-13T14:55:45;5.30;;;4.13;;
19605;SDS011;9950;50.168;8.210;2023-02-13T14:58:15;3.72;;;3.10;;
19605;SDS011;9950;50.168;8.210;2023-02-13T15:00:50;4.28;;;3.00;;
19605;SDS011;9950;50.168;8.210;2023-02-13T15:03:21;5.97;;;3.60;;
19605;SDS011;9950;50.168;8.210;2023-02-13T15:05:50;4.43;;;3.20;;
19605;SDS011;9950;50.168;8.210;2023-02-13T15:08:18;5.38;;;3.78;;
19605;SDS011;9950;50.168;8.210;2023-02-13T15:10:47;4.53;;;3.63;;
19605;SDS011;9950;50.168;8.210;2023-02-13T15:13:15;5.45;;;3.10;;
19605;SDS011;9950;50.168;8.210;2023-02-13T15:15:43;4.53;;;3.45;;
19605;SDS011;9950;50.168;8.210;2023-02-13T15:18:15;5.00;;;3.47;;
19605;SDS011;9950;50.168;8.210;2023-02-13T15:20:44;6.60;;;4.00;;